sensor_id;sensor_type;location;lat;lon;timestamp;pressure;altitude;pressure_sealevel;temperature;humidity
50310;BME280;36207;51.850;21.698;2023-03-14T00:01:17;98481.35;;;8.12;69.33
50310;BME280;36207;51.850;21.698;2023-03-14T00:03:45;98478.51;;;8.06;69.06
50310;BME280;36207;51.850;21.698;2023-03-14T00:06:13;98475.45;;;8.01;69.01
50310;BME280;36207;51.850;21.698;2023-03-14T00:08:40;98472.04;;;7.96;68.13
50310;BME280;36207;51.850;21.698;2023-03-14T00:11:16;98467.14;;;7.92;69.06
50310;BME280;36207;51.850;21.698;2023-03-14T00:13:42;98467.79;;;7.88;69.24
50310;BME280;36207;51.850;21.698;2023-03-14T00:16:11;98467.95;;;7.84;69.08
50310;BME280;36207;51.850;21.698;2023-03-14T00:18:38;98467.52;;;7.79;68.05
50310;BME280;36207;51.850;21.698;2023-03-14T00:21:05;98462.22;;;7.75;68.18
50310;BME280;36207;51.850;21.698;2023-03-14T00:23:32;98463.60;;;7.71;68.37
50310;BME280;36207;51.850;21.698;2023-03-14T00:26:04;98458.15;;;7.66;67.95
50310;BME280;36207;51.850;21.698;2023-03-14T00:28:30;98455.92;;;7.60;67.24
50310;BME280;36207;51.850;21.698;2023-03-14T00:30:56;98452.81;;;7.53;66.71
50310;BME280;36207;51.850;21.698;2023-03-14T00:33:23;98445.36;;;7.49;66.96
50310;BME280;36207;51.850;21.698;2023-03-14T00:36:06;98440.70;;;7.47;66.88
50310;BME280;36207;51.850;21.698;2023-03-14T00:38:34;98436.96;;;7.44;67.28
50310;BME280;36207;51.850;21.698;2023-03-14T00:41:08;98431.61;;;7.44;67.81
50310;BME280;36207;51.850;21.698;2023-03-14T00:43:34;98431.85;;;7.41;67.78
50310;BME280;36207;51.850;21.698;2023-03-14T00:46:01;98425.59;;;7.36;67.48
50310;BME280;36207;51.850;21.698;2023-03-14T00:48:27;98423.55;;;7.34;67.19
50310;BME280;36207;51.850;21.698;2023-03-14T00:50:53;98426.20;;;7.30;67.11
50310;BME280;36207;51.850;21.698;2023-03-14T00:53:19;98421.33;;;7.28;67.26
50310;BME280;36207;51.850;21.698;2023-03-14T00:55:45;98422.60;;;7.28;67.56
50310;BME280;36207;51.850;21.698;2023-03-14T00:58:13;98418.98;;;7.26;67.54
50310;BME280;36207;51.850;21.698;2023-03-14T01:00:40;98409.58;;;7.22;67.57
50310;BME280;36207;51.850;21.698;2023-03-14T01:03:07;98398.45;;;7.18;67.55
50310;BME280;36207;51.850;21.698;2023-03-14T01:05:33;98396.73;;;7.14;67.54
50310;BME280;36207;51.850;21.698;2023-03-14T01:07:59;98397.77;;;7.11;67.10
50310;BME280;36207;51.850;21.698;2023-03-14T01:10:25;98401.99;;;7.08;67.14
50310;BME280;36207;51.850;21.698;2023-03-14T01:12:51;98391.21;;;7.04;67.18
50310;BME280;36207;51.850;21.698;2023-03-14T01:15:19;98381.94;;;7.01;67.48
50310;BME280;36207;51.850;21.698;2023-03-14T01:17:45;98378.36;;;6.99;67.05
50310;BME280;36207;51.850;21.698;2023-03-14T01:20:13;98371.77;;;6.97;67.09
50310;BME280;36207;51.850;21.698;2023-03-14T01:22:41;98371.28;;;6.93;67.25
50310;BME280;36207;51.850;21.698;2023-03-14T01:25:09;98367.02;;;6.92;67.43
50310;BME280;36207;51.850;21.698;2023-03-14T01:27:35;98362.73;;;6.91;67.26
50310;BME280;36207;51.850;21.698;2023-03-14T01:30:01;98354.02;;;6.87;67.45
50310;BME280;36207;51.850;21.698;2023-03-14T01:32:28;98354.94;;;6.83;67.26
50310;BME280;36207;51.850;21.698;2023-03-14T01:34:54;98354.58;;;6.83;67.41
50310;BME280;36207;51.850;21.698;2023-03-14T01:37:19;98352.84;;;6.84;67.21
50310;BME280;36207;51.850;21.698;2023-03-14T01:39:48;98343.65;;;6.85;67.44
50310;BME280;36207;51.850;21.698;2023-03-14T01:42:15;98341.32;;;6.87;67.13
50310;BME280;36207;51.850;21.698;2023-03-14T01:44:58;98339.33;;;6.87;67.27
50310;BME280;36207;51.850;21.698;2023-03-14T01:47:25;98336.67;;;6.87;67.03
50310;BME280;36207;51.850;21.698;2023-03-14T01:50:10;98335.55;;;6.85;67.03
50310;BME280;36207;51.850;21.698;2023-03-14T01:52:49;98335.15;;;6.85;67.21
50310;BME280;36207;51.850;21.698;2023-03-14T01:55:23;98327.78;;;6.82;66.91
50310;BME280;36207;51.850;21.698;2023-03-14T01:57:54;98325.68;;;6.79;67.06
50310;BME280;36207;51.850;21.698;2023-03-14T02:00:23;98322.59;;;6.79;67.46
50310;BME280;36207;51.850;21.698;2023-03-14T02:02:58;98324.95;;;6.78;67.43
50310;BME280;36207;51.850;21.698;2023-03-14T02:05:30;98321.34;;;6.76;67.28
50310;BME280;36207;51.850;21.698;2023-03-14T02:08:00;98320.95;;;6.70;66.89
50310;BME280;36207;51.850;21.698;2023-03-14T02:10:40;98318.17;;;6.71;67.36
50310;BME280;36207;51.850;21.698;2023-03-14T02:13:07;98321.80;;;6.71;67.30
50310;BME280;36207;51.850;21.698;2023-03-14T02:15:34;98317.92;;;6.69;67.32
50310;BME280;36207;51.850;21.698;2023-03-14T02:18:01;98319.73;;;6.67;67.29
50310;BME280;36207;51.850;21.698;2023-03-14T02:20:37;98319.63;;;6.67;67.20
50310;BME280;36207;51.850;21.698;2023-03-14T02:23:04;98317.23;;;6.70;67.15
50310;BME280;36207;51.850;21.698;2023-03-14T02:25:46;98319.16;;;6.74;67.22
50310;BME280;36207;51.850;21.698;2023-03-14T02:28:14;98312.48;;;6.75;67.13
50310;BME280;36207;51.850;21.698;2023-03-14T02:30:40;98307.59;;;6.77;67.25
50310;BME280;36207;51.850;21.698;2023-03-14T02:33:12;98310.98;;;6.78;66.98
50310;BME280;36207;51.850;21.698;2023-03-14T02:35:58;98301.54;;;6.76;66.64
50310;BME280;36207;51.850;21.698;2023-03-14T02:41:30;98295.63;;;6.76;66.80
50310;BME280;36207;51.850;21.698;2023-03-14T02:43:56;98292.20;;;6.75;67.01
50310;BME280;36207;51.850;21.698;2023-03-14T02:46:22;98292.67;;;6.75;66.71
50310;BME280;36207;51.850;21.698;2023-03-14T02:48:50;98287.70;;;6.73;66.67
50310;BME280;36207;51.850;21.698;2023-03-14T02:51:17;98285.64;;;6.70;66.32
50310;BME280;36207;51.850;21.698;2023-03-14T02:53:43;98293.95;;;6.66;66.58
50310;BME280;36207;51.850;21.698;2023-03-14T02:56:10;98284.31;;;6.64;66.67
50310;BME280;36207;51.850;21.698;2023-03-14T02:58:36;98271.86;;;6.63;66.67
50310;BME280;36207;51.850;21.698;2023-03-14T03:01:02;98268.05;;;6.61;66.74
50310;BME280;36207;51.850;21.698;2023-03-14T03:03:28;98269.08;;;6.60;66.58
50310;BME280;36207;51.850;21.698;2023-03-14T03:05:55;98257.36;;;6.60;66.74
50310;BME280;36207;51.850;21.698;2023-03-14T03:08:23;98263.09;;;6.57;66.47
50310;BME280;36207;51.850;21.698;2023-03-14T03:10:50;98256.08;;;6.55;66.84
50310;BME280;36207;51.850;21.698;2023-03-14T03:13:16;98250.83;;;6.53;66.78
50310;BME280;36207;51.850;21.698;2023-03-14T03:15:42;98246.30;;;6.52;66.73
50310;BME280;36207;51.850;21.698;2023-03-14T03:18:08;98245.19;;;6.50;66.89
50310;BME280;36207;51.850;21.698;2023-03-14T03:20:35;98244.30;;;6.51;66.85
50310;BME280;36207;51.850;21.698;2023-03-14T03:23:00;98238.41;;;6.49;66.97
50310;BME280;36207;51.850;21.698;2023-03-14T03:25:27;98246.61;;;6.47;67.01
50310;BME280;36207;51.850;21.698;2023-03-14T03:27:53;98241.38;;;6.46;66.64
50310;BME280;36207;51.850;21.698;2023-03-14T03:30:19;98245.73;;;6.47;66.74
50310;BME280;36207;51.850;21.698;2023-03-14T03:32:46;98236.65;;;6.49;66.36
50310;BME280;36207;51.850;21.698;2023-03-14T03:35:12;98229.69;;;6.50;66.35
50310;BME280;36207;51.850;21.698;2023-03-14T03:37:39;98235.27;;;6.49;66.38
50310;BME280;36207;51.850;21.698;2023-03-14T03:40:06;98237.76;;;6.49;66.46
50310;BME280;36207;51.850;21.698;2023-03-14T03:42:33;98238.94;;;6.48;66.44
50310;BME280;36207;51.850;21.698;2023-03-14T03:45:00;98237.80;;;6.47;66.36
50310;BME280;36207;51.850;21.698;2023-03-14T03:47:26;98236.57;;;6.48;66.30
50310;BME280;36207;51.850;21.698;2023-03-14T03:49:52;98232.02;;;6.49;66.18
50310;BME280;36207;51.850;21.698;2023-03-14T03:52:18;98229.48;;;6.50;66.10
50310;BME280;36207;51.850;21.698;2023-03-14T03:54:44;98218.55;;;6.52;66.27
50310;BME280;36207;51.850;21.698;2023-03-14T03:57:10;98216.60;;;6.51;66.14
50310;BME280;36207;51.850;21.698;2023-03-14T03:59:36;98221.51;;;6.53;65.72
50310;BME280;36207;51.850;21.698;2023-03-14T04:02:04;98215.40;;;6.55;65.99
50310;BME280;36207;51.850;21.698;2023-03-14T04:04:30;98206.79;;;6.55;65.82
50310;BME280;36207;51.850;21.698;2023-03-14T04:06:56;98212.98;;;6.56;65.90
50310;BME280;36207;51.850;21.698;2023-03-14T04:09:21;98210.92;;;6.58;66.09
50310;BME280;36207;51.850;21.698;2023-03-14T04:11:47;98215.70;;;6.58;65.92
50310;BME280;36207;51.850;21.698;2023-03-14T04:14:13;98219.94;;;6.58;65.93
50310;BME280;36207;51.850;21.698;2023-03-14T04:16:39;98225.52;;;6.59;65.93
50310;BME280;36207;51.850;21.698;2023-03-14T04:19:05;98226.02;;;6.59;65.86
50310;BME280;36207;51.850;21.698;2023-03-14T04:21:31;98215.13;;;6.60;65.91
50310;BME280;36207;51.850;21.698;2023-03-14T04:23:57;98217.30;;;6.61;65.86
50310;BME280;36207;51.850;21.698;2023-03-14T04:26:23;98216.16;;;6.63;66.18
50310;BME280;36207;51.850;21.698;2023-03-14T04:28:49;98212.81;;;6.63;65.86
50310;BME280;36207;51.850;21.698;2023-03-14T04:31:20;98203.89;;;6.63;66.03
50310;BME280;36207;51.850;21.698;2023-03-14T04:33:46;98203.77;;;6.63;66.07
50310;BME280;36207;51.850;21.698;2023-03-14T04:36:13;98198.45;;;6.63;65.72
50310;BME280;36207;51.850;21.698;2023-03-14T04:38:39;98172.41;;;6.64;66.09
50310;BME280;36207;51.850;21.698;2023-03-14T04:41:05;98165.23;;;6.62;65.50
50310;BME280;36207;51.850;21.698;2023-03-14T04:43:32;98164.85;;;6.59;65.65
50310;BME280;36207;51.850;21.698;2023-03-14T04:45:58;98164.73;;;6.57;65.93
50310;BME280;36207;51.850;21.698;2023-03-14T04:48:25;98169.89;;;6.57;66.12
50310;BME280;36207;51.850;21.698;2023-03-14T04:50:52;98168.52;;;6.56;65.66
50310;BME280;36207;51.850;21.698;2023-03-14T04:53:18;98179.41;;;6.56;65.50
50310;BME280;36207;51.850;21.698;2023-03-14T04:55:49;98180.56;;;6.57;65.73
50310;BME280;36207;51.850;21.698;2023-03-14T04:58:15;98184.86;;;6.59;65.88
50310;BME280;36207;51.850;21.698;2023-03-14T05:00:41;98185.27;;;6.62;65.79
50310;BME280;36207;51.850;21.698;2023-03-14T05:03:07;98187.92;;;6.64;65.63
50310;BME280;36207;51.850;21.698;2023-03-14T05:05:33;98184.27;;;6.64;65.46
50310;BME280;36207;51.850;21.698;2023-03-14T05:07:59;98186.80;;;6.66;65.76
50310;BME280;36207;51.850;21.698;2023-03-14T05:10:25;98196.46;;;6.67;65.54
50310;BME280;36207;51.850;21.698;2023-03-14T05:12:51;98191.66;;;6.69;65.24
50310;BME280;36207;51.850;21.698;2023-03-14T05:15:17;98182.35;;;6.70;65.34
50310;BME280;36207;51.850;21.698;2023-03-14T05:17:42;98174.48;;;6.71;65.25
50310;BME280;36207;51.850;21.698;2023-03-14T05:20:09;98167.83;;;6.70;65.16
50310;BME280;36207;51.850;21.698;2023-03-14T05:22:39;98167.63;;;6.69;65.20
50310;BME280;36207;51.850;21.698;2023-03-14T05:25:05;98165.59;;;6.68;65.12
50310;BME280;36207;51.850;21.698;2023-03-14T05:27:32;98162.97;;;6.68;65.30
50310;BME280;36207;51.850;21.698;2023-03-14T05:29:59;98159.08;;;6.68;64.89
50310;BME280;36207;51.850;21.698;2023-03-14T05:32:24;98150.56;;;6.68;64.89
50310;BME280;36207;51.850;21.698;2023-03-14T05:34:50;98143.36;;;6.72;65.51
50310;BME280;36207;51.850;21.698;2023-03-14T05:37:16;98147.39;;;6.74;65.16
50310;BME280;36207;51.850;21.698;2023-03-14T05:39:42;98145.20;;;6.76;65.00
50310;BME280;36207;51.850;21.698;2023-03-14T05:42:08;98133.58;;;6.78;64.79
50310;BME280;36207;51.850;21.698;2023-03-14T05:44:34;98133.41;;;6.81;64.53
50310;BME280;36207;51.850;21.698;2023-03-14T05:47:00;98135.74;;;6.86;64.63
50310;BME280;36207;51.850;21.698;2023-03-14T05:49:26;98135.92;;;6.91;64.36
50310;BME280;36207;51.850;21.698;2023-03-14T05:51:52;98129.52;;;6.98;63.92
50310;BME280;36207;51.850;21.698;2023-03-14T05:54:18;98128.15;;;7.07;64.22
50310;BME280;36207;51.850;21.698;2023-03-14T05:56:44;98127.46;;;7.15;63.42
50310;BME280;36207;51.850;21.698;2023-03-14T05:59:10;98139.39;;;7.24;63.23
50310;BME280;36207;51.850;21.698;2023-03-14T06:01:36;98147.81;;;7.32;63.24
50310;BME280;36207;51.850;21.698;2023-03-14T06:04:02;98159.95;;;7.40;63.35
50310;BME280;36207;51.850;21.698;2023-03-14T06:06:27;98165.88;;;7.43;62.70
50310;BME280;36207;51.850;21.698;2023-03-14T06:08:53;98167.27;;;7.46;62.62
50310;BME280;36207;51.850;21.698;2023-03-14T06:11:19;98161.95;;;7.50;62.68
50310;BME280;36207;51.850;21.698;2023-03-14T06:13:45;98160.11;;;7.52;62.52
50310;BME280;36207;51.850;21.698;2023-03-14T06:16:12;98143.27;;;7.53;61.83
50310;BME280;36207;51.850;21.698;2023-03-14T06:18:38;98139.31;;;7.56;62.50
50310;BME280;36207;51.850;21.698;2023-03-14T06:21:04;98146.27;;;7.60;62.65
50310;BME280;36207;51.850;21.698;2023-03-14T06:23:30;98141.35;;;7.62;62.25
50310;BME280;36207;51.850;21.698;2023-03-14T06:25:57;98130.02;;;7.65;61.67
50310;BME280;36207;51.850;21.698;2023-03-14T06:28:23;98144.90;;;7.69;62.31
50310;BME280;36207;51.850;21.698;2023-03-14T06:30:49;98154.41;;;7.77;61.47
50310;BME280;36207;51.850;21.698;2023-03-14T06:33:15;98150.67;;;7.89;61.62
50310;BME280;36207;51.850;21.698;2023-03-14T06:35:41;98137.50;;;7.93;60.98
50310;BME280;36207;51.850;21.698;2023-03-14T06:38:07;98141.55;;;7.95;60.21
50310;BME280;36207;51.850;21.698;2023-03-14T06:40:33;98135.81;;;8.01;60.57
50310;BME280;36207;51.850;21.698;2023-03-14T06:42:59;98121.71;;;8.11;61.29
50310;BME280;36207;51.850;21.698;2023-03-14T06:45:25;98124.45;;;8.23;60.81
50310;BME280;36207;51.850;21.698;2023-03-14T06:47:51;98122.61;;;8.34;61.04
50310;BME280;36207;51.850;21.698;2023-03-14T06:50:16;98120.18;;;8.44;60.03
50310;BME280;36207;51.850;21.698;2023-03-14T06:52:42;98115.78;;;8.55;60.02
50310;BME280;36207;51.850;21.698;2023-03-14T06:55:14;98104.91;;;8.67;59.62
50310;BME280;36207;51.850;21.698;2023-03-14T06:57:40;98097.15;;;8.78;61.02
50310;BME280;36207;51.850;21.698;2023-03-14T07:00:07;98102.21;;;8.89;58.93
50310;BME280;36207;51.850;21.698;2023-03-14T07:02:33;98098.33;;;8.98;59.80
50310;BME280;36207;51.850;21.698;2023-03-14T07:04:59;98102.80;;;9.09;57.79
50310;BME280;36207;51.850;21.698;2023-03-14T07:07:27;98102.27;;;9.17;57.68
50310;BME280;36207;51.850;21.698;2023-03-14T07:09:53;98105.77;;;9.27;59.18
50310;BME280;36207;51.850;21.698;2023-03-14T07:12:19;98103.23;;;9.38;59.46
50310;BME280;36207;51.850;21.698;2023-03-14T07:14:45;98087.80;;;9.53;59.77
50310;BME280;36207;51.850;21.698;2023-03-14T07:17:11;98090.55;;;9.70;58.78
50310;BME280;36207;51.850;21.698;2023-03-14T07:19:36;98089.06;;;9.79;57.90
50310;BME280;36207;51.850;21.698;2023-03-14T07:22:04;98088.55;;;9.85;57.66
50310;BME280;36207;51.850;21.698;2023-03-14T07:24:30;98085.23;;;9.97;57.57
50310;BME280;36207;51.850;21.698;2023-03-14T07:26:56;98076.47;;;10.10;57.69
50310;BME280;36207;51.850;21.698;2023-03-14T07:29:22;98071.84;;;10.23;58.25
50310;BME280;36207;51.850;21.698;2023-03-14T07:31:48;98073.63;;;10.35;56.46
50310;BME280;36207;51.850;21.698;2023-03-14T07:34:14;98068.29;;;10.45;57.81
50310;BME280;36207;51.850;21.698;2023-03-14T07:36:40;98071.21;;;10.58;57.60
50310;BME280;36207;51.850;21.698;2023-03-14T07:39:06;98069.82;;;10.75;57.89
50310;BME280;36207;51.850;21.698;2023-03-14T07:41:32;98069.52;;;10.88;57.57
50310;BME280;36207;51.850;21.698;2023-03-14T07:43:58;98080.44;;;11.01;55.66
50310;BME280;36207;51.850;21.698;2023-03-14T07:46:24;98083.02;;;11.14;56.01
50310;BME280;36207;51.850;21.698;2023-03-14T07:48:50;98078.20;;;11.26;57.30
50310;BME280;36207;51.850;21.698;2023-03-14T07:51:16;98084.53;;;11.48;57.72
50310;BME280;36207;51.850;21.698;2023-03-14T07:53:42;98076.34;;;11.69;57.27
50310;BME280;36207;51.850;21.698;2023-03-14T07:56:09;98081.45;;;11.79;54.00
50310;BME280;36207;51.850;21.698;2023-03-14T07:58:35;98079.65;;;11.87;55.53
50310;BME280;36207;51.850;21.698;2023-03-14T08:01:01;98086.34;;;11.99;55.58
50310;BME280;36207;51.850;21.698;2023-03-14T08:03:27;98080.03;;;12.12;55.54
50310;BME280;36207;51.850;21.698;2023-03-14T08:05:52;98072.39;;;12.24;54.75
50310;BME280;36207;51.850;21.698;2023-03-14T08:08:19;98068.15;;;12.40;54.67
50310;BME280;36207;51.850;21.698;2023-03-14T08:10:45;98057.69;;;12.49;54.07
50310;BME280;36207;51.850;21.698;2023-03-14T08:13:11;98057.44;;;12.53;53.61
50310;BME280;36207;51.850;21.698;2023-03-14T08:15:37;98050.77;;;12.61;53.32
50310;BME280;36207;51.850;21.698;2023-03-14T08:18:04;98056.05;;;12.71;54.82
50310;BME280;36207;51.850;21.698;2023-03-14T08:20:30;98054.41;;;12.98;56.89
50310;BME280;36207;51.850;21.698;2023-03-14T08:23:00;98042.44;;;13.26;56.58
50310;BME280;36207;51.850;21.698;2023-03-14T08:25:28;98037.20;;;13.47;56.86
50310;BME280;36207;51.850;21.698;2023-03-14T08:27:55;98033.40;;;13.70;56.07
50310;BME280;36207;51.850;21.698;2023-03-14T08:30:21;98032.03;;;13.93;55.55
50310;BME280;36207;51.850;21.698;2023-03-14T08:32:48;98029.89;;;14.16;56.37
50310;BME280;36207;51.850;21.698;2023-03-14T08:35:14;98021.86;;;14.41;56.39
50310;BME280;36207;51.850;21.698;2023-03-14T08:37:40;98020.05;;;14.60;55.81
50310;BME280;36207;51.850;21.698;2023-03-14T08:40:08;98026.51;;;14.67;55.46
50310;BME280;36207;51.850;21.698;2023-03-14T08:42:39;98026.33;;;14.77;54.32
50310;BME280;36207;51.850;21.698;2023-03-14T08:45:06;98027.56;;;14.89;54.88
50310;BME280;36207;51.850;21.698;2023-03-14T08:47:32;98034.31;;;15.06;56.01
50310;BME280;36207;51.850;21.698;2023-03-14T08:49:58;98034.67;;;15.17;54.26
50310;BME280;36207;51.850;21.698;2023-03-14T08:52:24;98033.69;;;15.29;55.21
50310;BME280;36207;51.850;21.698;2023-03-14T08:54:50;98029.64;;;15.43;55.86
50310;BME280;36207;51.850;21.698;2023-03-14T08:57:16;98027.30;;;15.55;54.02
50310;BME280;36207;51.850;21.698;2023-03-14T08:59:42;98025.06;;;15.60;52.25
50310;BME280;36207;51.850;21.698;2023-03-14T09:02:11;98021.19;;;15.67;52.72
50310;BME280;36207;51.850;21.698;2023-03-14T09:04:37;98018.98;;;15.84;54.87
50310;BME280;36207;51.850;21.698;2023-03-14T09:07:03;98023.11;;;16.02;55.41
50310;BME280;36207;51.850;21.698;2023-03-14T09:09:30;98016.42;;;16.16;55.28
50310;BME280;36207;51.850;21.698;2023-03-14T09:11:56;98016.20;;;16.12;51.61
50310;BME280;36207;51.850;21.698;2023-03-14T09:14:23;98009.86;;;16.02;52.59
50310;BME280;36207;51.850;21.698;2023-03-14T09:16:49;98010.13;;;16.01;52.47
50310;BME280;36207;51.850;21.698;2023-03-14T09:19:15;98013.11;;;15.96;52.83
50310;BME280;36207;51.850;21.698;2023-03-14T09:21:40;98012.83;;;15.80;50.63
50310;BME280;36207;51.850;21.698;2023-03-14T09:24:06;98012.39;;;15.79;51.36
50310;BME280;36207;51.850;21.698;2023-03-14T09:26:32;98010.36;;;15.84;49.83
50310;BME280;36207;51.850;21.698;2023-03-14T09:28:58;98011.20;;;15.91;48.73
50310;BME280;36207;51.850;21.698;2023-03-14T09:31:24;98001.46;;;15.90;48.85
50310;BME280;36207;51.850;21.698;2023-03-14T09:33:50;97996.81;;;15.99;52.52
50310;BME280;36207;51.850;21.698;2023-03-14T09:36:16;97986.02;;;16.21;51.93
50310;BME280;36207;51.850;21.698;2023-03-14T09:38:42;97986.36;;;16.32;49.27
50310;BME280;36207;51.850;21.698;2023-03-14T09:41:29;97986.46;;;16.30;48.39
50310;BME280;36207;51.850;21.698;2023-03-14T09:44:19;97982.81;;;16.35;48.60
50310;BME280;36207;51.850;21.698;2023-03-14T09:46:50;97980.89;;;16.40;49.41
50310;BME280;36207;51.850;21.698;2023-03-14T09:49:33;97976.48;;;16.47;48.80
50310;BME280;36207;51.850;21.698;2023-03-14T09:52:02;97969.98;;;16.61;50.29
50310;BME280;36207;51.850;21.698;2023-03-14T09:55:00;97968.37;;;16.74;48.39
50310;BME280;36207;51.850;21.698;2023-03-14T09:57:29;97966.02;;;16.76;47.56
50310;BME280;36207;51.850;21.698;2023-03-14T09:59:59;97964.52;;;16.77;49.46
50310;BME280;36207;51.850;21.698;2023-03-14T10:02:35;97964.15;;;16.78;49.84
50310;BME280;36207;51.850;21.698;2023-03-14T10:05:01;97977.54;;;16.67;46.42
50310;BME280;36207;51.850;21.698;2023-03-14T10:07:29;97978.13;;;16.64;49.48
50310;BME280;36207;51.850;21.698;2023-03-14T10:09:56;97978.13;;;16.66;47.78
50310;BME280;36207;51.850;21.698;2023-03-14T10:12:33;97971.52;;;16.60;48.12
50310;BME280;36207;51.850;21.698;2023-03-14T10:15:11;97970.14;;;16.64;49.94
50310;BME280;36207;51.850;21.698;2023-03-14T10:17:43;97980.19;;;16.74;47.10
50310;BME280;36207;51.850;21.698;2023-03-14T10:20:35;97968.85;;;16.73;48.66
50310;BME280;36207;51.850;21.698;2023-03-14T10:25:43;97950.60;;;16.92;48.85
50310;BME280;36207;51.850;21.698;2023-03-14T10:28:29;97951.31;;;16.99;47.83
50310;BME280;36207;51.850;21.698;2023-03-14T10:30:57;97944.66;;;17.05;47.70
50310;BME280;36207;51.850;21.698;2023-03-14T10:33:26;97950.59;;;17.05;47.01
50310;BME280;36207;51.850;21.698;2023-03-14T10:36:28;97956.10;;;17.07;48.73
50310;BME280;36207;51.850;21.698;2023-03-14T10:42:30;97944.66;;;17.14;46.52
50310;BME280;36207;51.850;21.698;2023-03-14T10:45:03;97938.77;;;17.13;46.75
50310;BME280;36207;51.850;21.698;2023-03-14T10:47:31;97939.74;;;17.14;46.26
50310;BME280;36207;51.850;21.698;2023-03-14T10:50:21;97940.14;;;17.08;45.65
50310;BME280;36207;51.850;21.698;2023-03-14T10:52:48;97927.39;;;17.10;47.77
50310;BME280;36207;51.850;21.698;2023-03-14T10:55:14;97920.04;;;17.25;47.65
50310;BME280;36207;51.850;21.698;2023-03-14T10:57:41;97917.31;;;17.34;47.70
50310;BME280;36207;51.850;21.698;2023-03-14T11:03:08;97920.04;;;17.44;46.63
50310;BME280;36207;51.850;21.698;2023-03-14T11:05:46;97922.12;;;17.51;47.95
50310;BME280;36207;51.850;21.698;2023-03-14T11:08:42;97920.88;;;17.51;46.47
50310;BME280;36207;51.850;21.698;2023-03-14T11:11:20;97928.45;;;17.44;44.41
50310;BME280;36207;51.850;21.698;2023-03-14T11:13:57;97927.91;;;17.28;44.65
50310;BME280;36207;51.850;21.698;2023-03-14T11:16:52;97933.00;;;17.13;44.87
50310;BME280;36207;51.850;21.698;2023-03-14T11:27:21;97935.86;;;16.57;45.84
50310;BME280;36207;51.850;21.698;2023-03-14T11:35:30;97925.08;;;16.14;47.37
50310;BME280;36207;51.850;21.698;2023-03-14T11:41:04;97917.92;;;15.93;47.65
50310;BME280;36207;51.850;21.698;2023-03-14T11:43:39;97916.60;;;15.84;47.65
50310;BME280;36207;51.850;21.698;2023-03-14T11:46:16;97915.18;;;15.77;46.94
50310;BME280;36207;51.850;21.698;2023-03-14T11:51:24;97920.48;;;15.52;47.10
50310;BME280;36207;51.850;21.698;2023-03-14T11:54:02;97922.36;;;15.39;47.48
50310;BME280;36207;51.850;21.698;2023-03-14T11:56:40;97923.44;;;15.28;47.31
50310;BME280;36207;51.850;21.698;2023-03-14T11:59:18;97917.39;;;15.15;47.69
50310;BME280;36207;51.850;21.698;2023-03-14T12:01:52;97911.80;;;15.07;48.43
50310;BME280;36207;51.850;21.698;2023-03-14T12:04:50;97913.43;;;15.01;48.49
50310;BME280;36207;51.850;21.698;2023-03-14T12:07:26;97909.64;;;14.95;48.69
50310;BME280;36207;51.850;21.698;2023-03-14T12:09:55;97910.17;;;14.88;48.76
50310;BME280;36207;51.850;21.698;2023-03-14T12:12:24;97917.06;;;14.84;48.62
50310;BME280;36207;51.850;21.698;2023-03-14T12:14:57;97929.43;;;14.76;48.48
50310;BME280;36207;51.850;21.698;2023-03-14T12:17:41;97926.97;;;14.69;48.58
50310;BME280;36207;51.850;21.698;2023-03-14T12:20:18;97923.15;;;14.62;48.29
50310;BME280;36207;51.850;21.698;2023-03-14T12:22:47;97912.05;;;14.60;48.42
50310;BME280;36207;51.850;21.698;2023-03-14T12:25:19;97905.96;;;14.63;48.65
50310;BME280;36207;51.850;21.698;2023-03-14T12:30:38;97908.99;;;14.73;49.31
50310;BME280;36207;51.850;21.698;2023-03-14T12:41:12;97893.16;;;15.10;49.25
50310;BME280;36207;51.850;21.698;2023-03-14T12:43:39;97890.60;;;15.13;48.88
50310;BME280;36207;51.850;21.698;2023-03-14T12:48:44;97881.63;;;15.14;49.62
50310;BME280;36207;51.850;21.698;2023-03-14T12:51:15;97877.92;;;15.14;49.32
50310;BME280;36207;51.850;21.698;2023-03-14T12:59:46;97895.21;;;15.02;49.61
50310;BME280;36207;51.850;21.698;2023-03-14T13:02:14;97896.77;;;14.99;50.02
50310;BME280;36207;51.850;21.698;2023-03-14T13:04:50;97900.54;;;14.94;49.36
50310;BME280;36207;51.850;21.698;2023-03-14T13:08:01;97899.96;;;14.88;49.88
50310;BME280;36207;51.850;21.698;2023-03-14T13:10:27;97897.23;;;14.82;50.36
50310;BME280;36207;51.850;21.698;2023-03-14T13:13:19;97898.77;;;14.77;50.25
50310;BME280;36207;51.850;21.698;2023-03-14T13:15:48;97898.80;;;14.69;50.68
50310;BME280;36207;51.850;21.698;2023-03-14T13:20:48;97894.53;;;14.59;50.69
50310;BME280;36207;51.850;21.698;2023-03-14T13:23:23;97888.86;;;14.55;50.59
50310;BME280;36207;51.850;21.698;2023-03-14T13:25:49;97887.81;;;14.51;50.77
50310;BME280;36207;51.850;21.698;2023-03-14T13:28:16;97888.31;;;14.51;51.17
50310;BME280;36207;51.850;21.698;2023-03-14T13:30:45;97897.23;;;14.49;51.08
50310;BME280;36207;51.850;21.698;2023-03-14T13:33:19;97896.29;;;14.46;51.03
50310;BME280;36207;51.850;21.698;2023-03-14T13:35:59;97902.84;;;14.40;51.51
50310;BME280;36207;51.850;21.698;2023-03-14T13:38:27;97911.23;;;14.35;52.25
50310;BME280;36207;51.850;21.698;2023-03-14T13:40:55;97915.59;;;14.25;52.26
50310;BME280;36207;51.850;21.698;2023-03-14T13:43:30;97918.52;;;14.12;52.24
50310;BME280;36207;51.850;21.698;2023-03-14T13:46:04;97917.89;;;13.97;52.46
50310;BME280;36207;51.850;21.698;2023-03-14T13:48:32;97922.54;;;13.85;52.89
50310;BME280;36207;51.850;21.698;2023-03-14T13:51:03;97920.23;;;13.75;53.14
50310;BME280;36207;51.850;21.698;2023-03-14T13:53:30;97924.23;;;13.70;53.70
50310;BME280;36207;51.850;21.698;2023-03-14T13:56:01;97932.98;;;13.61;53.68
50310;BME280;36207;51.850;21.698;2023-03-14T13:58:29;97939.80;;;13.54;54.48